sensor_id;sensor_type;location;lat;lon;timestamp;P1;durP1;ratioP1;P2;durP2;ratioP2
49444;SDS011;35323;43.080;-81.378;2022-08-11T00:02:15;2.15;;;1.23;;
49444;SDS011;35323;43.080;-81.378;2022-08-11T00:04:43;1.15;;;1.05;;
49444;SDS011;35323;43.080;-81.378;2022-08-11T00:07:11;1.40;;;0.90;;
49444;SDS011;35323;43.080;-81.378;2022-08-11T00:09:39;1.00;;;1.00;;
49444;SDS011;35323;43.080;-81.378;2022-08-11T00:12:14;1.08;;;0.90;;
49444;SDS011;35323;43.080;-81.378;2022-08-11T00:14:43;1.10;;;1.05;;
49444;SDS011;35323;43.080;-81.378;2022-08-11T00:17:11;1.33;;;1.23;;
49444;SDS011;35323;43.080;-81.378;2022-08-11T00:19:40;1.40;;;1.30;;
49444;SDS011;35323;43.080;-81.378;2022-08-11T00:22:30;2.33;;;1.58;;
49444;SDS011;35323;43.080;-81.378;2022-08-11T00:24:59;0.85;;;0.85;;
49444;SDS011;35323;43.080;-81.378;2022-08-11T00:27:34;1.08;;;0.98;;
49444;SDS011;35323;43.080;-81.378;2022-08-11T00:30:03;3.65;;;1.60;;
49444;SDS011;35323;43.080;-81.378;2022-08-11T00:32:31;1.10;;;1.08;;
49444;SDS011;35323;43.080;-81.378;2022-08-11T00:35:01;1.05;;;0.98;;
49444;SDS011;35323;43.080;-81.378;2022-08-11T00:37:54;3.83;;;2.75;;
49444;SDS011;35323;43.080;-81.378;2022-08-11T00:40:43;3.95;;;3.63;;
49444;SDS011;35323;43.080;-81.378;2022-08-11T00:48:35;2.65;;;1.48;;
49444;SDS011;35323;43.080;-81.378;2022-08-11T00:51:17;2.33;;;1.83;;
49444;SDS011;35323;43.080;-81.378;2022-08-11T00:54:05;1.92;;;1.83;;
49444;SDS011;35323;43.080;-81.378;2022-08-11T00:56:48;2.97;;;1.70;;
49444;SDS011;35323;43.080;-81.378;2022-08-11T01:02:14;1.23;;;1.02;;
49444;SDS011;35323;43.080;-81.378;2022-08-11T01:07:39;2.53;;;2.22;;
49444;SDS011;35323;43.080;-81.378;2022-08-11T01:10:36;1.10;;;0.95;;
49444;SDS011;35323;43.080;-81.378;2022-08-11T01:13:14;2.13;;;1.30;;
49444;SDS011;35323;43.080;-81.378;2022-08-11T01:24:13;1.23;;;1.02;;
49444;SDS011;35323;43.080;-81.378;2022-08-11T01:29:23;1.00;;;0.95;;
49444;SDS011;35323;43.080;-81.378;2022-08-11T01:32:00;1.77;;;1.15;;
49444;SDS011;35323;43.080;-81.378;2022-08-11T01:37:46;1.45;;;1.35;;
49444;SDS011;35323;43.080;-81.378;2022-08-11T01:43:00;5.63;;;1.10;;
49444;SDS011;35323;43.080;-81.378;2022-08-11T01:45:52;1.17;;;1.08;;
49444;SDS011;35323;43.080;-81.378;2022-08-11T01:51:14;1.33;;;1.23;;
49444;SDS011;35323;43.080;-81.378;2022-08-11T02:01:35;1.58;;;1.30;;
49444;SDS011;35323;43.080;-81.378;2022-08-11T02:04:24;2.45;;;2.08;;
49444;SDS011;35323;43.080;-81.378;2022-08-11T02:09:43;1.30;;;1.15;;
49444;SDS011;35323;43.080;-81.378;2022-08-11T02:14:53;1.75;;;1.50;;
49444;SDS011;35323;43.080;-81.378;2022-08-11T02:17:48;2.13;;;1.52;;
49444;SDS011;35323;43.080;-81.378;2022-08-11T02:20:29;1.40;;;1.30;;
49444;SDS011;35323;43.080;-81.378;2022-08-11T02:29:11;1.25;;;1.15;;
49444;SDS011;35323;43.080;-81.378;2022-08-11T02:31:41;1.17;;;1.10;;
49444;SDS011;35323;43.080;-81.378;2022-08-11T02:34:53;2.00;;;1.20;;
49444;SDS011;35323;43.080;-81.378;2022-08-11T02:37:28;1.77;;;1.33;;
49444;SDS011;35323;43.080;-81.378;2022-08-11T02:40:07;2.25;;;1.15;;
49444;SDS011;35323;43.080;-81.378;2022-08-11T02:54:24;2.17;;;1.30;;
49444;SDS011;35323;43.080;-81.378;2022-08-11T03:01:51;2.65;;;1.60;;
49444;SDS011;35323;43.080;-81.378;2022-08-11T03:07:40;2.55;;;1.45;;
49444;SDS011;35323;43.080;-81.378;2022-08-11T03:13:03;2.42;;;1.40;;
49444;SDS011;35323;43.080;-81.378;2022-08-11T03:18:49;1.83;;;1.60;;
49444;SDS011;35323;43.080;-81.378;2022-08-11T03:21:23;2.28;;;1.33;;
49444;SDS011;35323;43.080;-81.378;2022-08-11T03:24:24;1.77;;;1.35;;
49444;SDS011;35323;43.080;-81.378;2022-08-11T03:29:36;1.38;;;1.23;;
49444;SDS011;35323;43.080;-81.378;2022-08-11T03:32:19;3.38;;;1.90;;
49444;SDS011;35323;43.080;-81.378;2022-08-11T03:34:48;2.17;;;1.98;;
49444;SDS011;35323;43.080;-81.378;2022-08-11T03:42:56;1.60;;;1.50;;
49444;SDS011;35323;43.080;-81.378;2022-08-11T03:45:31;2.17;;;1.63;;
49444;SDS011;35323;43.080;-81.378;2022-08-11T03:53:39;1.95;;;1.58;;
49444;SDS011;35323;43.080;-81.378;2022-08-11T03:56:19;2.65;;;1.98;;
49444;SDS011;35323;43.080;-81.378;2022-08-11T03:58:57;5.03;;;1.65;;
49444;SDS011;35323;43.080;-81.378;2022-08-11T04:06:56;2.45;;;2.25;;
49444;SDS011;35323;43.080;-81.378;2022-08-11T04:09:46;2.22;;;1.90;;
49444;SDS011;35323;43.080;-81.378;2022-08-11T04:26:40;2.40;;;2.20;;
49444;SDS011;35323;43.080;-81.378;2022-08-11T04:29:24;2.13;;;1.90;;
49444;SDS011;35323;43.080;-81.378;2022-08-11T04:40:17;4.22;;;1.63;;
49444;SDS011;35323;43.080;-81.378;2022-08-11T04:57:05;2.03;;;1.65;;
49444;SDS011;35323;43.080;-81.378;2022-08-11T05:03:26;3.88;;;2.05;;
49444;SDS011;35323;43.080;-81.378;2022-08-11T05:08:59;1.98;;;1.88;;
49444;SDS011;35323;43.080;-81.378;2022-08-11T05:14:26;3.03;;;2.05;;
49444;SDS011;35323;43.080;-81.378;2022-08-11T05:17:15;3.85;;;2.78;;
49444;SDS011;35323;43.080;-81.378;2022-08-11T05:20:02;3.20;;;2.90;;
49444;SDS011;35323;43.080;-81.378;2022-08-11T05:22:49;3.90;;;2.42;;
49444;SDS011;35323;43.080;-81.378;2022-08-11T05:25:36;3.35;;;3.05;;
49444;SDS011;35323;43.080;-81.378;2022-08-11T05:31:50;3.53;;;3.08;;
49444;SDS011;35323;43.080;-81.378;2022-08-11T05:34:46;6.38;;;3.97;;
49444;SDS011;35323;43.080;-81.378;2022-08-11T05:39:55;2.83;;;2.63;;
49444;SDS011;35323;43.080;-81.378;2022-08-11T05:42:42;4.03;;;3.63;;
49444;SDS011;35323;43.080;-81.378;2022-08-11T05:45:33;4.55;;;2.55;;
49444;SDS011;35323;43.080;-81.378;2022-08-11T05:48:34;3.80;;;2.53;;
49444;SDS011;35323;43.080;-81.378;2022-08-11T05:51:21;3.15;;;2.63;;
49444;SDS011;35323;43.080;-81.378;2022-08-11T05:54:21;2.88;;;2.45;;
49444;SDS011;35323;43.080;-81.378;2022-08-11T05:57:21;4.65;;;2.45;;
49444;SDS011;35323;43.080;-81.378;2022-08-11T06:00:10;3.28;;;2.58;;
49444;SDS011;35323;43.080;-81.378;2022-08-11T06:02:41;4.15;;;2.20;;
49444;SDS011;35323;43.080;-81.378;2022-08-11T06:05:09;3.17;;;2.45;;
49444;SDS011;35323;43.080;-81.378;2022-08-11T06:07:37;3.25;;;2.30;;
49444;SDS011;35323;43.080;-81.378;2022-08-11T06:13:15;2.60;;;2.40;;
49444;SDS011;35323;43.080;-81.378;2022-08-11T06:15:46;2.47;;;2.30;;
49444;SDS011;35323;43.080;-81.378;2022-08-11T06:18:14;2.00;;;1.80;;
49444;SDS011;35323;43.080;-81.378;2022-08-11T06:20:49;2.97;;;2.40;;
49444;SDS011;35323;43.080;-81.378;2022-08-11T06:23:18;2.53;;;1.70;;
49444;SDS011;35323;43.080;-81.378;2022-08-11T06:25:50;1.40;;;1.30;;
49444;SDS011;35323;43.080;-81.378;2022-08-11T06:28:27;1.80;;;1.70;;
49444;SDS011;35323;43.080;-81.378;2022-08-11T06:30:59;2.15;;;1.95;;
49444;SDS011;35323;43.080;-81.378;2022-08-11T06:33:45;2.33;;;1.50;;
49444;SDS011;35323;43.080;-81.378;2022-08-11T06:36:30;2.90;;;1.80;;
49444;SDS011;35323;43.080;-81.378;2022-08-11T06:41:55;3.35;;;1.95;;
49444;SDS011;35323;43.080;-81.378;2022-08-11T06:44:28;2.42;;;2.22;;
49444;SDS011;35323;43.080;-81.378;2022-08-11T06:47:08;3.00;;;1.80;;
49444;SDS011;35323;43.080;-81.378;2022-08-11T06:49:37;2.28;;;2.08;;
49444;SDS011;35323;43.080;-81.378;2022-08-11T06:52:28;3.53;;;1.77;;
49444;SDS011;35323;43.080;-81.378;2022-08-11T06:55:05;1.67;;;1.58;;
49444;SDS011;35323;43.080;-81.378;2022-08-11T06:57:56;2.10;;;1.60;;
49444;SDS011;35323;43.080;-81.378;2022-08-11T07:00:41;1.90;;;1.25;;
49444;SDS011;35323;43.080;-81.378;2022-08-11T07:03:11;1.50;;;1.38;;
49444;SDS011;35323;43.080;-81.378;2022-08-11T07:06:00;1.10;;;1.00;;
49444;SDS011;35323;43.080;-81.378;2022-08-11T07:08:33;3.72;;;1.27;;
49444;SDS011;35323;43.080;-81.378;2022-08-11T07:11:41;0.95;;;0.85;;
49444;SDS011;35323;43.080;-81.378;2022-08-11T07:14:46;1.63;;;1.20;;
49444;SDS011;35323;43.080;-81.378;2022-08-11T07:17:34;1.45;;;0.65;;
49444;SDS011;35323;43.080;-81.378;2022-08-11T07:20:04;0.77;;;0.77;;
49444;SDS011;35323;43.080;-81.378;2022-08-11T07:22:53;0.57;;;0.57;;
49444;SDS011;35323;43.080;-81.378;2022-08-11T07:25:41;0.60;;;0.60;;
49444;SDS011;35323;43.080;-81.378;2022-08-11T07:28:28;1.15;;;0.90;;
49444;SDS011;35323;43.080;-81.378;2022-08-11T07:34:05;0.93;;;0.70;;
49444;SDS011;35323;43.080;-81.378;2022-08-11T07:39:31;2.33;;;0.75;;
49444;SDS011;35323;43.080;-81.378;2022-08-11T07:42:03;0.93;;;0.85;;
49444;SDS011;35323;43.080;-81.378;2022-08-11T07:44:32;0.80;;;0.70;;
49444;SDS011;35323;43.080;-81.378;2022-08-11T07:47:20;2.25;;;0.45;;
49444;SDS011;35323;43.080;-81.378;2022-08-11T07:50:07;1.45;;;0.73;;
49444;SDS011;35323;43.080;-81.378;2022-08-11T07:52:56;0.55;;;0.50;;
49444;SDS011;35323;43.080;-81.378;2022-08-11T07:55:24;0.70;;;0.70;;
49444;SDS011;35323;43.080;-81.378;2022-08-11T07:58:13;1.20;;;1.10;;
49444;SDS011;35323;43.080;-81.378;2022-08-11T08:01:11;1.20;;;0.80;;
49444;SDS011;35323;43.080;-81.378;2022-08-11T08:04:03;1.52;;;1.00;;
49444;SDS011;35323;43.080;-81.378;2022-08-11T08:06:49;0.60;;;0.55;;
49444;SDS011;35323;43.080;-81.378;2022-08-11T08:09:38;0.93;;;0.82;;
49444;SDS011;35323;43.080;-81.378;2022-08-11T08:12:24;0.50;;;0.40;;
49444;SDS011;35323;43.080;-81.378;2022-08-11T08:15:11;4.47;;;1.30;;
49444;SDS011;35323;43.080;-81.378;2022-08-11T08:17:57;0.73;;;0.73;;
49444;SDS011;35323;43.080;-81.378;2022-08-11T08:20:46;0.88;;;0.88;;
49444;SDS011;35323;43.080;-81.378;2022-08-11T08:23:17;0.75;;;0.75;;
49444;SDS011;35323;43.080;-81.378;2022-08-11T08:26:00;1.48;;;0.77;;
49444;SDS011;35323;43.080;-81.378;2022-08-11T08:28:28;0.90;;;0.50;;
49444;SDS011;35323;43.080;-81.378;2022-08-11T08:30:58;0.75;;;0.75;;
49444;SDS011;35323;43.080;-81.378;2022-08-11T08:33:29;1.58;;;0.82;;
49444;SDS011;35323;43.080;-81.378;2022-08-11T08:35:59;0.52;;;0.52;;
49444;SDS011;35323;43.080;-81.378;2022-08-11T08:41:09;0.43;;;0.43;;
49444;SDS011;35323;43.080;-81.378;2022-08-11T08:43:42;0.60;;;0.52;;
49444;SDS011;35323;43.080;-81.378;2022-08-11T08:46:14;0.70;;;0.65;;
49444;SDS011;35323;43.080;-81.378;2022-08-11T08:48:43;1.08;;;0.68;;
49444;SDS011;35323;43.080;-81.378;2022-08-11T08:51:13;1.00;;;0.70;;
49444;SDS011;35323;43.080;-81.378;2022-08-11T08:54:21;1.45;;;0.65;;
49444;SDS011;35323;43.080;-81.378;2022-08-11T08:56:51;0.43;;;0.40;;
49444;SDS011;35323;43.080;-81.378;2022-08-11T08:59:20;0.40;;;0.40;;
49444;SDS011;35323;43.080;-81.378;2022-08-11T09:01:56;1.05;;;0.60;;
49444;SDS011;35323;43.080;-81.378;2022-08-11T09:04:24;0.65;;;0.65;;
49444;SDS011;35323;43.080;-81.378;2022-08-11T09:06:53;0.80;;;0.80;;
49444;SDS011;35323;43.080;-81.378;2022-08-11T09:09:22;0.55;;;0.55;;
49444;SDS011;35323;43.080;-81.378;2022-08-11T09:11:50;0.93;;;0.68;;
49444;SDS011;35323;43.080;-81.378;2022-08-11T09:16:47;2.03;;;0.68;;
49444;SDS011;35323;43.080;-81.378;2022-08-11T09:19:16;1.10;;;0.88;;
49444;SDS011;35323;43.080;-81.378;2022-08-11T09:21:48;0.60;;;0.60;;
49444;SDS011;35323;43.080;-81.378;2022-08-11T09:24:34;1.63;;;0.70;;
49444;SDS011;35323;43.080;-81.378;2022-08-11T09:27:20;0.60;;;0.60;;
49444;SDS011;35323;43.080;-81.378;2022-08-11T09:29:49;0.80;;;0.77;;
49444;SDS011;35323;43.080;-81.378;2022-08-11T09:32:18;23.38;;;1.48;;
49444;SDS011;35323;43.080;-81.378;2022-08-11T09:34:47;0.63;;;0.63;;
49444;SDS011;35323;43.080;-81.378;2022-08-11T09:40:20;0.63;;;0.63;;
49444;SDS011;35323;43.080;-81.378;2022-08-11T09:43:01;1.08;;;0.82;;
49444;SDS011;35323;43.080;-81.378;2022-08-11T09:45:48;0.75;;;0.75;;
49444;SDS011;35323;43.080;-81.378;2022-08-11T09:48:19;0.68;;;0.40;;
49444;SDS011;35323;43.080;-81.378;2022-08-11T09:50:50;3.42;;;0.75;;
49444;SDS011;35323;43.080;-81.378;2022-08-11T09:53:18;2.85;;;0.80;;
49444;SDS011;35323;43.080;-81.378;2022-08-11T09:56:03;0.82;;;0.80;;
49444;SDS011;35323;43.080;-81.378;2022-08-11T09:58:51;2.08;;;1.98;;
49444;SDS011;35323;43.080;-81.378;2022-08-11T10:01:19;0.65;;;0.65;;
49444;SDS011;35323;43.080;-81.378;2022-08-11T10:04:04;3.25;;;1.05;;
49444;SDS011;35323;43.080;-81.378;2022-08-11T10:06:35;0.77;;;0.68;;
49444;SDS011;35323;43.080;-81.378;2022-08-11T10:09:22;0.98;;;0.85;;
49444;SDS011;35323;43.080;-81.378;2022-08-11T10:11:52;0.50;;;0.28;;
49444;SDS011;35323;43.080;-81.378;2022-08-11T10:17:29;1.48;;;0.68;;
49444;SDS011;35323;43.080;-81.378;2022-08-11T10:19:57;1.35;;;1.25;;
49444;SDS011;35323;43.080;-81.378;2022-08-11T10:22:31;1.17;;;0.98;;
49444;SDS011;35323;43.080;-81.378;2022-08-11T10:25:18;0.50;;;0.50;;
49444;SDS011;35323;43.080;-81.378;2022-08-11T10:28:06;0.70;;;0.60;;
49444;SDS011;35323;43.080;-81.378;2022-08-11T10:30:54;0.68;;;0.68;;
49444;SDS011;35323;43.080;-81.378;2022-08-11T10:33:43;1.05;;;0.68;;
49444;SDS011;35323;43.080;-81.378;2022-08-11T10:36:31;0.73;;;0.73;;
49444;SDS011;35323;43.080;-81.378;2022-08-11T10:39:00;0.73;;;0.73;;
49444;SDS011;35323;43.080;-81.378;2022-08-11T10:41:28;2.58;;;0.60;;
49444;SDS011;35323;43.080;-81.378;2022-08-11T10:44:38;1.40;;;0.90;;
49444;SDS011;35323;43.080;-81.378;2022-08-11T10:47:06;1.13;;;0.73;;
49444;SDS011;35323;43.080;-81.378;2022-08-11T10:49:53;1.33;;;0.77;;
49444;SDS011;35323;43.080;-81.378;2022-08-11T10:52:39;1.10;;;0.60;;
49444;SDS011;35323;43.080;-81.378;2022-08-11T10:55:25;1.02;;;0.88;;
49444;SDS011;35323;43.080;-81.378;2022-08-11T10:58:12;0.52;;;0.45;;
49444;SDS011;35323;43.080;-81.378;2022-08-11T11:00:58;0.73;;;0.70;;
49444;SDS011;35323;43.080;-81.378;2022-08-11T11:03:27;0.50;;;0.50;;
49444;SDS011;35323;43.080;-81.378;2022-08-11T11:05:58;0.32;;;0.32;;
49444;SDS011;35323;43.080;-81.378;2022-08-11T11:08:48;2.08;;;0.80;;
49444;SDS011;35323;43.080;-81.378;2022-08-11T11:11:29;1.77;;;1.23;;
49444;SDS011;35323;43.080;-81.378;2022-08-11T11:14:16;1.02;;;0.93;;
49444;SDS011;35323;43.080;-81.378;2022-08-11T11:17:14;1.42;;;1.17;;
49444;SDS011;35323;43.080;-81.378;2022-08-11T11:19:48;0.98;;;0.93;;
49444;SDS011;35323;43.080;-81.378;2022-08-11T11:22:18;0.45;;;0.40;;
49444;SDS011;35323;43.080;-81.378;2022-08-11T11:25:29;0.63;;;0.60;;
49444;SDS011;35323;43.080;-81.378;2022-08-11T11:28:04;3.60;;;0.77;;
49444;SDS011;35323;43.080;-81.378;2022-08-11T11:30:41;2.50;;;0.70;;
49444;SDS011;35323;43.080;-81.378;2022-08-11T11:33:49;1.00;;;0.80;;
49444;SDS011;35323;43.080;-81.378;2022-08-11T11:39:01;0.95;;;0.60;;
49444;SDS011;35323;43.080;-81.378;2022-08-11T11:41:29;0.75;;;0.70;;
49444;SDS011;35323;43.080;-81.378;2022-08-11T11:43:57;0.80;;;0.73;;
49444;SDS011;35323;43.080;-81.378;2022-08-11T11:46:27;0.80;;;0.80;;
49444;SDS011;35323;43.080;-81.378;2022-08-11T11:48:55;1.45;;;0.88;;
49444;SDS011;35323;43.080;-81.378;2022-08-11T11:51:25;0.73;;;0.63;;
49444;SDS011;35323;43.080;-81.378;2022-08-11T11:53:53;0.40;;;0.40;;
49444;SDS011;35323;43.080;-81.378;2022-08-11T11:56:21;0.82;;;0.63;;
49444;SDS011;35323;43.080;-81.378;2022-08-11T11:58:50;3.22;;;0.65;;
49444;SDS011;35323;43.080;-81.378;2022-08-11T12:01:40;3.72;;;0.68;;
49444;SDS011;35323;43.080;-81.378;2022-08-11T12:04:15;0.98;;;0.90;;
49444;SDS011;35323;43.080;-81.378;2022-08-11T12:06:44;0.73;;;0.73;;
49444;SDS011;35323;43.080;-81.378;2022-08-11T12:09:13;4.35;;;1.08;;
49444;SDS011;35323;43.080;-81.378;2022-08-11T12:11:48;0.82;;;0.82;;
49444;SDS011;35323;43.080;-81.378;2022-08-11T12:14:34;0.57;;;0.57;;
49444;SDS011;35323;43.080;-81.378;2022-08-11T12:17:02;0.98;;;0.60;;
49444;SDS011;35323;43.080;-81.378;2022-08-11T12:19:30;0.90;;;0.90;;
49444;SDS011;35323;43.080;-81.378;2022-08-11T12:22:01;1.02;;;0.80;;
49444;SDS011;35323;43.080;-81.378;2022-08-11T12:24:47;0.65;;;0.63;;
49444;SDS011;35323;43.080;-81.378;2022-08-11T12:27:33;0.55;;;0.55;;
49444;SDS011;35323;43.080;-81.378;2022-08-11T12:30:04;0.82;;;0.82;;
49444;SDS011;35323;43.080;-81.378;2022-08-11T12:32:36;0.88;;;0.70;;
49444;SDS011;35323;43.080;-81.378;2022-08-11T12:35:05;0.75;;;0.70;;
49444;SDS011;35323;43.080;-81.378;2022-08-11T12:37:39;0.47;;;0.47;;
49444;SDS011;35323;43.080;-81.378;2022-08-11T12:40:11;1.02;;;0.90;;
49444;SDS011;35323;43.080;-81.378;2022-08-11T12:43:18;4.05;;;1.08;;
49444;SDS011;35323;43.080;-81.378;2022-08-11T12:46:07;2.00;;;0.75;;
49444;SDS011;35323;43.080;-81.378;2022-08-11T12:48:35;1.38;;;0.80;;
49444;SDS011;35323;43.080;-81.378;2022-08-11T12:51:35;1.05;;;0.68;;
49444;SDS011;35323;43.080;-81.378;2022-08-11T12:54:57;1.45;;;1.35;;
49444;SDS011;35323;43.080;-81.378;2022-08-11T12:57:27;1.20;;;1.02;;
49444;SDS011;35323;43.080;-81.378;2022-08-11T13:00:16;0.85;;;0.85;;
49444;SDS011;35323;43.080;-81.378;2022-08-11T13:03:03;0.85;;;0.60;;
49444;SDS011;35323;43.080;-81.378;2022-08-11T13:05:51;1.60;;;1.10;;
49444;SDS011;35323;43.080;-81.378;2022-08-11T13:08:21;2.70;;;0.80;;
49444;SDS011;35323;43.080;-81.378;2022-08-11T13:10:50;1.23;;;0.73;;
49444;SDS011;35323;43.080;-81.378;2022-08-11T13:13:37;2.35;;;0.93;;
49444;SDS011;35323;43.080;-81.378;2022-08-11T13:16:22;2.75;;;0.70;;
49444;SDS011;35323;43.080;-81.378;2022-08-11T13:18:50;0.73;;;0.47;;
49444;SDS011;35323;43.080;-81.378;2022-08-11T13:21:19;1.48;;;0.90;;
49444;SDS011;35323;43.080;-81.378;2022-08-11T13:23:51;0.93;;;0.85;;
49444;SDS011;35323;43.080;-81.378;2022-08-11T13:26:31;0.93;;;0.93;;
49444;SDS011;35323;43.080;-81.378;2022-08-11T13:29:22;0.70;;;0.70;;
49444;SDS011;35323;43.080;-81.378;2022-08-11T13:31:51;1.17;;;1.00;;
49444;SDS011;35323;43.080;-81.378;2022-08-11T13:34:20;1.52;;;0.80;;
49444;SDS011;35323;43.080;-81.378;2022-08-11T13:36:49;0.80;;;0.52;;
49444;SDS011;35323;43.080;-81.378;2022-08-11T13:39:19;0.60;;;0.60;;
49444;SDS011;35323;43.080;-81.378;2022-08-11T13:41:50;2.88;;;2.10;;
49444;SDS011;35323;43.080;-81.378;2022-08-11T13:44:19;0.98;;;0.70;;
49444;SDS011;35323;43.080;-81.378;2022-08-11T13:46:52;0.63;;;0.63;;
49444;SDS011;35323;43.080;-81.378;2022-08-11T13:49:23;0.55;;;0.55;;
49444;SDS011;35323;43.080;-81.378;2022-08-11T13:51:50;0.88;;;0.70;;
49444;SDS011;35323;43.080;-81.378;2022-08-11T13:54:20;0.70;;;0.70;;
49444;SDS011;35323;43.080;-81.378;2022-08-11T13:56:49;1.20;;;0.65;;
49444;SDS011;35323;43.080;-81.378;2022-08-11T13:59:19;1.50;;;1.30;;
49444;SDS011;35323;43.080;-81.378;2022-08-11T14:01:57;1.45;;;1.00;;
49444;SDS011;35323;43.080;-81.378;2022-08-11T14:04:54;1.13;;;0.73;;
49444;SDS011;35323;43.080;-81.378;2022-08-11T14:07:24;0.85;;;0.68;;
49444;SDS011;35323;43.080;-81.378;2022-08-11T14:09:54;0.90;;;0.90;;
49444;SDS011;35323;43.080;-81.378;2022-08-11T14:12:23;2.35;;;1.73;;
49444;SDS011;35323;43.080;-81.378;2022-08-11T14:18:18;2.08;;;1.77;;
49444;SDS011;35323;43.080;-81.378;2022-08-11T14:20:49;2.63;;;0.70;;
49444;SDS011;35323;43.080;-81.378;2022-08-11T14:23:41;1.05;;;0.88;;
49444;SDS011;35323;43.080;-81.378;2022-08-11T14:26:09;0.52;;;0.52;;
49444;SDS011;35323;43.080;-81.378;2022-08-11T14:29:01;2.50;;;0.90;;
49444;SDS011;35323;43.080;-81.378;2022-08-11T14:31:30;1.20;;;0.98;;
49444;SDS011;35323;43.080;-81.378;2022-08-11T14:34:00;1.00;;;0.90;;
49444;SDS011;35323;43.080;-81.378;2022-08-11T14:36:29;1.30;;;0.90;;
49444;SDS011;35323;43.080;-81.378;2022-08-11T14:38:57;1.20;;;0.90;;
49444;SDS011;35323;43.080;-81.378;2022-08-11T14:41:26;0.80;;;0.80;;
49444;SDS011;35323;43.080;-81.378;2022-08-11T14:44:33;1.83;;;0.90;;
49444;SDS011;35323;43.080;-81.378;2022-08-11T14:47:20;2.67;;;0.70;;
49444;SDS011;35323;43.080;-81.378;2022-08-11T14:49:54;0.70;;;0.70;;
49444;SDS011;35323;43.080;-81.378;2022-08-11T14:52:37;1.25;;;0.70;;
49444;SDS011;35323;43.080;-81.378;2022-08-11T14:55:05;0.32;;;0.32;;
49444;SDS011;35323;43.080;-81.378;2022-08-11T14:57:52;2.42;;;0.57;;
49444;SDS011;35323;43.080;-81.378;2022-08-11T15:00:31;0.93;;;0.85;;
49444;SDS011;35323;43.080;-81.378;2022-08-11T15:03:03;1.10;;;0.80;;
49444;SDS011;35323;43.080;-81.378;2022-08-11T15:05:48;0.90;;;0.70;;
49444;SDS011;35323;43.080;-81.378;2022-08-11T15:08:24;0.80;;;0.80;;
49444;SDS011;35323;43.080;-81.378;2022-08-11T15:11:12;3.60;;;0.90;;
49444;SDS011;35323;43.080;-81.378;2022-08-11T15:13:59;0.80;;;0.80;;
49444;SDS011;35323;43.080;-81.378;2022-08-11T15:16:27;2.03;;;0.80;;
49444;SDS011;35323;43.080;-81.378;2022-08-11T15:19:13;1.35;;;0.85;;
49444;SDS011;35323;43.080;-81.378;2022-08-11T15:21:41;1.13;;;0.98;;
49444;SDS011;35323;43.080;-81.378;2022-08-11T15:24:27;0.90;;;0.90;;
49444;SDS011;35323;43.080;-81.378;2022-08-11T15:26:56;1.20;;;1.10;;
49444;SDS011;35323;43.080;-81.378;2022-08-11T15:29:43;0.90;;;0.75;;
49444;SDS011;35323;43.080;-81.378;2022-08-11T15:32:29;0.88;;;0.75;;
49444;SDS011;35323;43.080;-81.378;2022-08-11T15:35:16;0.88;;;0.80;;
49444;SDS011;35323;43.080;-81.378;2022-08-11T15:38:04;4.38;;;1.17;;
49444;SDS011;35323;43.080;-81.378;2022-08-11T15:40:36;0.93;;;0.88;;
49444;SDS011;35323;43.080;-81.378;2022-08-11T15:46:16;2.33;;;0.87;;
49444;SDS011;35323;43.080;-81.378;2022-08-11T15:48:56;2.53;;;0.90;;
49444;SDS011;35323;43.080;-81.378;2022-08-11T15:54:28;2.70;;;0.70;;
49444;SDS011;35323;43.080;-81.378;2022-08-11T15:56:57;6.47;;;2.08;;
49444;SDS011;35323;43.080;-81.378;2022-08-11T15:59:29;2.58;;;1.02;;
49444;SDS011;35323;43.080;-81.378;2022-08-11T16:02:16;1.17;;;0.73;;
49444;SDS011;35323;43.080;-81.378;2022-08-11T16:04:54;1.42;;;0.88;;
49444;SDS011;35323;43.080;-81.378;2022-08-11T16:07:25;0.75;;;0.75;;
49444;SDS011;35323;43.080;-81.378;2022-08-11T16:12:27;3.70;;;0.90;;
49444;SDS011;35323;43.080;-81.378;2022-08-11T16:14:56;0.95;;;0.63;;
49444;SDS011;35323;43.080;-81.378;2022-08-11T16:17:47;0.40;;;0.40;;
49444;SDS011;35323;43.080;-81.378;2022-08-11T16:20:19;0.50;;;0.50;;
49444;SDS011;35323;43.080;-81.378;2022-08-11T16:22:47;0.68;;;0.68;;
49444;SDS011;35323;43.080;-81.378;2022-08-11T16:25:28;0.75;;;0.60;;
49444;SDS011;35323;43.080;-81.378;2022-08-11T16:28:16;2.38;;;1.08;;
49444;SDS011;35323;43.080;-81.378;2022-08-11T16:30:47;2.90;;;0.63;;
49444;SDS011;35323;43.080;-81.378;2022-08-11T16:33:15;2.55;;;0.90;;
49444;SDS011;35323;43.080;-81.378;2022-08-11T16:36:04;0.70;;;0.60;;
49444;SDS011;35323;43.080;-81.378;2022-08-11T16:38:52;1.08;;;0.63;;
49444;SDS011;35323;43.080;-81.378;2022-08-11T16:41:20;1.25;;;1.08;;
49444;SDS011;35323;43.080;-81.378;2022-08-11T16:44:08;1.58;;;0.95;;
49444;SDS011;35323;43.080;-81.378;2022-08-11T16:47:04;0.98;;;0.65;;
49444;SDS011;35323;43.080;-81.378;2022-08-11T16:49:37;0.60;;;0.60;;
49444;SDS011;35323;43.080;-81.378;2022-08-11T16:54:37;2.55;;;0.90;;
49444;SDS011;35323;43.080;-81.378;2022-08-11T16:57:14;1.48;;;0.57;;
49444;SDS011;35323;43.080;-81.378;2022-08-11T17:00:03;1.27;;;1.05;;
49444;SDS011;35323;43.080;-81.378;2022-08-11T17:02:36;0.60;;;0.60;;
49444;SDS011;35323;43.080;-81.378;2022-08-11T17:05:24;1.10;;;0.52;;
49444;SDS011;35323;43.080;-81.378;2022-08-11T17:08:23;0.52;;;0.50;;
49444;SDS011;35323;43.080;-81.378;2022-08-11T17:11:26;0.50;;;0.50;;
49444;SDS011;35323;43.080;-81.378;2022-08-11T17:14:14;1.30;;;1.00;;
49444;SDS011;35323;43.080;-81.378;2022-08-11T17:17:02;2.42;;;1.40;;
49444;SDS011;35323;43.080;-81.378;2022-08-11T17:19:31;0.50;;;0.50;;
49444;SDS011;35323;43.080;-81.378;2022-08-11T17:22:19;0.70;;;0.70;;
49444;SDS011;35323;43.080;-81.378;2022-08-11T17:25:06;0.90;;;0.43;;
49444;SDS011;35323;43.080;-81.378;2022-08-11T17:27:34;1.25;;;0.80;;
49444;SDS011;35323;43.080;-81.378;2022-08-11T17:30:04;0.65;;;0.65;;
49444;SDS011;35323;43.080;-81.378;2022-08-11T17:35:24;0.82;;;0.57;;
49444;SDS011;35323;43.080;-81.378;2022-08-11T17:38:15;0.50;;;0.50;;
49444;SDS011;35323;43.080;-81.378;2022-08-11T17:40:46;2.05;;;0.70;;
49444;SDS011;35323;43.080;-81.378;2022-08-11T17:43:33;0.55;;;0.55;;
49444;SDS011;35323;43.080;-81.378;2022-08-11T17:46:19;0.30;;;0.30;;
49444;SDS011;35323;43.080;-81.378;2022-08-11T17:49:06;0.85;;;0.80;;
49444;SDS011;35323;43.080;-81.378;2022-08-11T17:51:35;0.82;;;0.82;;
49444;SDS011;35323;43.080;-81.378;2022-08-11T17:54:22;0.65;;;0.40;;
49444;SDS011;35323;43.080;-81.378;2022-08-11T17:57:10;0.35;;;0.35;;
49444;SDS011;35323;43.080;-81.378;2022-08-11T17:59:57;0.80;;;0.52;;
49444;SDS011;35323;43.080;-81.378;2022-08-11T18:02:29;0.40;;;0.40;;
49444;SDS011;35323;43.080;-81.378;2022-08-11T18:05:18;0.40;;;0.40;;
49444;SDS011;35323;43.080;-81.378;2022-08-11T18:07:47;0.70;;;0.60;;
49444;SDS011;35323;43.080;-81.378;2022-08-11T18:10:34;0.22;;;0.22;;
49444;SDS011;35323;43.080;-81.378;2022-08-11T18:13:22;0.47;;;0.47;;
49444;SDS011;35323;43.080;-81.378;2022-08-11T18:16:09;0.40;;;0.40;;
49444;SDS011;35323;43.080;-81.378;2022-08-11T18:18:55;0.50;;;0.50;;
49444;SDS011;35323;43.080;-81.378;2022-08-11T18:21:42;0.30;;;0.30;;
49444;SDS011;35323;43.080;-81.378;2022-08-11T18:24:46;1.02;;;0.40;;
49444;SDS011;35323;43.080;-81.378;2022-08-11T18:27:33;0.65;;;0.65;;
49444;SDS011;35323;43.080;-81.378;2022-08-11T18:30:20;0.80;;;0.43;;
49444;SDS011;35323;43.080;-81.378;2022-08-11T18:33:06;0.22;;;0.22;;
49444;SDS011;35323;43.080;-81.378;2022-08-11T18:36:14;0.20;;;0.20;;
49444;SDS011;35323;43.080;-81.378;2022-08-11T18:39:02;1.20;;;0.40;;
49444;SDS011;35323;43.080;-81.378;2022-08-11T18:41:49;0.20;;;0.20;;